sensor_id;sensor_type;location;lat;lon;timestamp;pressure;altitude;pressure_sealevel;temperature;humidity
29461;BME280;16428;47.836;35.106;2024-03-23T00:54:02;101318.47;;;0.57;100.00
29461;BME280;16428;47.836;35.106;2024-03-23T00:56:29;101315.97;;;0.68;100.00
29461;BME280;16428;47.836;35.106;2024-03-23T00:58:57;101314.97;;;0.56;100.00
29461;BME280;16428;47.836;35.106;2024-03-23T01:01:23;101317.41;;;0.59;100.00
29461;BME280;16428;47.836;35.106;2024-03-23T01:03:49;101311.28;;;0.59;100.00
29461;BME280;16428;47.836;35.106;2024-03-23T01:06:16;101307.88;;;0.57;100.00
29461;BME280;16428;47.836;35.106;2024-03-23T01:08:42;101304.50;;;0.55;100.00
29461;BME280;16428;47.836;35.106;2024-03-23T01:14:19;101315.97;;;0.27;100.00
29461;BME280;16428;47.836;35.106;2024-03-23T01:16:46;101317.56;;;0.44;100.00
29461;BME280;16428;47.836;35.106;2024-03-23T01:19:12;101308.00;;;0.41;100.00
29461;BME280;16428;47.836;35.106;2024-03-23T01:21:38;101315.84;;;0.43;100.00
29461;BME280;16428;47.836;35.106;2024-03-23T01:24:03;101316.97;;;0.39;100.00
29461;BME280;16428;47.836;35.106;2024-03-23T01:34:26;101320.88;;;0.19;100.00
29461;BME280;16428;47.836;35.106;2024-03-23T01:36:54;101325.97;;;0.22;100.00
29461;BME280;16428;47.836;35.106;2024-03-23T01:39:19;101313.97;;;0.16;100.00
29461;BME280;16428;47.836;35.106;2024-03-23T01:41:45;101315.56;;;0.33;100.00
29461;BME280;16428;47.836;35.106;2024-03-23T01:44:11;101314.25;;;0.26;100.00
29461;BME280;16428;47.836;35.106;2024-03-23T01:46:38;101315.56;;;0.33;100.00
29461;BME280;16428;47.836;35.106;2024-03-23T01:49:05;101313.69;;;0.35;100.00
29461;BME280;16428;47.836;35.106;2024-03-23T01:51:32;101312.53;;;0.39;100.00
29461;BME280;16428;47.836;35.106;2024-03-23T01:53:58;101313.88;;;0.32;100.00
29461;BME280;16428;47.836;35.106;2024-03-23T01:56:32;101315.78;;;0.30;100.00
29461;BME280;16428;47.836;35.106;2024-03-23T01:59:05;101310.28;;;0.33;100.00
29461;BME280;16428;47.836;35.106;2024-03-23T02:01:32;101314.84;;;0.03;100.00
29461;BME280;16428;47.836;35.106;2024-03-23T02:03:58;101306.53;;;0.09;100.00
29461;BME280;16428;47.836;35.106;2024-03-23T02:06:24;101306.53;;;0.09;100.00
29461;BME280;16428;47.836;35.106;2024-03-23T02:08:51;101315.31;;;0.23;100.00
29461;BME280;16428;47.836;35.106;2024-03-23T02:11:17;101312.56;;;0.25;100.00
29461;BME280;16428;47.836;35.106;2024-03-23T02:13:43;101300.50;;;0.07;100.00
29461;BME280;16428;47.836;35.106;2024-03-23T02:16:09;101300.13;;;0.13;100.00
29461;BME280;16428;47.836;35.106;2024-03-23T02:18:35;101298.53;;;0.10;100.00
29461;BME280;16428;47.836;35.106;2024-03-23T02:21:01;101305.41;;;0.27;100.00
29461;BME280;16428;47.836;35.106;2024-03-23T02:23:27;101306.28;;;0.13;100.00
29461;BME280;16428;47.836;35.106;2024-03-23T02:25:53;101298.22;;;0.00;100.00
29461;BME280;16428;47.836;35.106;2024-03-23T02:28:20;101298.63;;;0.09;100.00
29461;BME280;16428;47.836;35.106;2024-03-23T02:30:46;101297.09;;;0.19;100.00
29461;BME280;16428;47.836;35.106;2024-03-23T02:33:12;101289.84;;;0.08;100.00
29461;BME280;16428;47.836;35.106;2024-03-23T02:35:38;101300.03;;;0.14;100.00
29461;BME280;16428;47.836;35.106;2024-03-23T02:38:04;101296.25;;;0.18;100.00
29461;BME280;16428;47.836;35.106;2024-03-23T02:40:30;101296.16;;;0.06;100.00
29461;BME280;16428;47.836;35.106;2024-03-23T02:42:56;101294.09;;;0.11;100.00
29461;BME280;16428;47.836;35.106;2024-03-23T02:45:22;101295.19;;;0.21;100.00
29461;BME280;16428;47.836;35.106;2024-03-23T02:47:48;101292.22;;;0.13;100.00
29461;BME280;16428;47.836;35.106;2024-03-23T02:50:18;101291.06;;;0.17;100.00
29461;BME280;16428;47.836;35.106;2024-03-23T02:52:44;101298.00;;;0.32;100.00
29461;BME280;16428;47.836;35.106;2024-03-23T02:55:11;101297.44;;;0.41;100.00
29461;BME280;16428;47.836;35.106;2024-03-23T02:57:37;101298.00;;;0.32;100.00
29461;BME280;16428;47.836;35.106;2024-03-23T03:00:03;101299.53;;;0.22;100.00
29461;BME280;16428;47.836;35.106;2024-03-23T03:02:30;101298.03;;;0.18;100.00
29461;BME280;16428;47.836;35.106;2024-03-23T03:04:56;101292.75;;;0.18;100.00
29461;BME280;16428;47.836;35.106;2024-03-23T03:07:21;101296.91;;;0.22;100.00
29461;BME280;16428;47.836;35.106;2024-03-23T03:09:47;101290.00;;;0.19;100.00
29461;BME280;16428;47.836;35.106;2024-03-23T03:12:14;101294.38;;;0.06;100.00
29461;BME280;16428;47.836;35.106;2024-03-23T03:14:39;101293.16;;;0.12;100.00
29461;BME280;16428;47.836;35.106;2024-03-23T03:17:05;101289.59;;;-0.02;100.00
29461;BME280;16428;47.836;35.106;2024-03-23T03:19:32;101293.25;;;0.10;100.00
29461;BME280;16428;47.836;35.106;2024-03-23T03:21:58;101297.09;;;0.19;100.00
29461;BME280;16428;47.836;35.106;2024-03-23T03:24:24;101298.97;;;0.17;100.00
29461;BME280;16428;47.836;35.106;2024-03-23T03:26:50;101287.97;;;0.10;100.00
29461;BME280;16428;47.836;35.106;2024-03-23T03:29:16;101296.72;;;0.11;100.00
29461;BME280;16428;47.836;35.106;2024-03-23T03:31:42;101298.03;;;0.04;100.00
29461;BME280;16428;47.836;35.106;2024-03-23T03:34:09;101291.63;;;0.08;100.00
29461;BME280;16428;47.836;35.106;2024-03-23T03:36:35;101288.34;;;0.04;100.00
29461;BME280;16428;47.836;35.106;2024-03-23T03:39:00;101293.16;;;-0.03;100.00
29461;BME280;16428;47.836;35.106;2024-03-23T03:41:29;101291.47;;;-0.04;100.00
29461;BME280;16428;47.836;35.106;2024-03-23T03:43:55;101295.03;;;0.10;100.00
29461;BME280;16428;47.836;35.106;2024-03-23T03:46:21;101298.91;;;0.04;100.00
29461;BME280;16428;47.836;35.106;2024-03-23T03:48:47;101302.22;;;0.08;100.00
29461;BME280;16428;47.836;35.106;2024-03-23T03:51:14;101301.75;;;0.15;100.00
29461;BME280;16428;47.836;35.106;2024-03-23T03:53:40;101305.97;;;0.18;100.00
29461;BME280;16428;47.836;35.106;2024-03-23T03:56:06;101307.84;;;0.16;100.00
29461;BME280;16428;47.836;35.106;2024-03-23T03:58:32;101305.19;;;0.16;100.00
29461;BME280;16428;47.836;35.106;2024-03-23T04:00:59;101297.00;;;0.20;100.00
29461;BME280;16428;47.836;35.106;2024-03-23T04:07:01;101304.09;;;0.06;100.00
29461;BME280;16428;47.836;35.106;2024-03-23T04:09:27;101299.19;;;0.14;100.00
29461;BME280;16428;47.836;35.106;2024-03-23T04:11:54;101312.00;;;0.06;100.00
29461;BME280;16428;47.836;35.106;2024-03-23T04:14:20;101299.38;;;-0.04;100.00
29461;BME280;16428;47.836;35.106;2024-03-23T04:16:46;101308.16;;;-0.03;100.00
29461;BME280;16428;47.836;35.106;2024-03-23T04:19:11;101302.22;;;-0.07;100.00
29461;BME280;16428;47.836;35.106;2024-03-23T04:21:38;101306.28;;;-0.01;100.00
29461;BME280;16428;47.836;35.106;2024-03-23T04:24:04;101306.72;;;0.06;100.00
29461;BME280;16428;47.836;35.106;2024-03-23T04:26:40;101310.03;;;0.09;100.00
29461;BME280;16428;47.836;35.106;2024-03-23T04:29:06;101306.72;;;0.06;100.00
29461;BME280;16428;47.836;35.106;2024-03-23T04:31:32;101305.78;;;-0.08;100.00
29461;BME280;16428;47.836;35.106;2024-03-23T04:34:03;101299.91;;;0.16;100.00
29461;BME280;16428;47.836;35.106;2024-03-23T04:36:30;101307.56;;;0.06;100.00
29461;BME280;16428;47.836;35.106;2024-03-23T04:38:59;101305.69;;;0.08;100.00
29461;BME280;16428;47.836;35.106;2024-03-23T04:41:26;101305.97;;;0.18;100.00
29461;BME280;16428;47.836;35.106;2024-03-23T04:43:52;101315.97;;;0.27;100.00
29461;BME280;16428;47.836;35.106;2024-03-23T04:46:18;101322.72;;;0.31;100.00
29461;BME280;16428;47.836;35.106;2024-03-23T04:48:44;101318.41;;;0.44;100.00
29461;BME280;16428;47.836;35.106;2024-03-23T04:51:10;101319.13;;;0.60;100.00
29461;BME280;16428;47.836;35.106;2024-03-23T04:53:38;101319.59;;;0.80;100.00
29461;BME280;16428;47.836;35.106;2024-03-23T04:56:04;101323.63;;;0.73;100.00
29461;BME280;16428;47.836;35.106;2024-03-23T04:58:30;101327.19;;;0.72;100.00
29461;BME280;16428;47.836;35.106;2024-03-23T05:00:56;101332.16;;;0.90;100.00
29461;BME280;16428;47.836;35.106;2024-03-23T05:03:23;101333.19;;;0.88;100.00
29461;BME280;16428;47.836;35.106;2024-03-23T05:05:50;101329.00;;;0.98;100.00
29461;BME280;16428;47.836;35.106;2024-03-23T05:08:16;101328.16;;;0.97;100.00
29461;BME280;16428;47.836;35.106;2024-03-23T05:10:43;101332.13;;;1.17;100.00
29461;BME280;16428;47.836;35.106;2024-03-23T05:13:09;101343.84;;;1.13;100.00
29461;BME280;16428;47.836;35.106;2024-03-23T05:15:35;101339.16;;;0.91;100.00
29461;BME280;16428;47.836;35.106;2024-03-23T05:18:02;101342.97;;;1.00;100.00
29461;BME280;16428;47.836;35.106;2024-03-23T05:20:28;101347.25;;;1.15;100.00
29461;BME280;16428;47.836;35.106;2024-03-23T05:22:57;101341.44;;;1.23;100.00
29461;BME280;16428;47.836;35.106;2024-03-23T05:25:23;101336.59;;;1.29;100.00
29461;BME280;16428;47.836;35.106;2024-03-23T05:27:49;101339.19;;;1.04;100.00
29461;BME280;16428;47.836;35.106;2024-03-23T05:30:15;101346.31;;;1.16;100.00
29461;BME280;16428;47.836;35.106;2024-03-23T05:32:41;101334.59;;;1.20;100.00
29461;BME280;16428;47.836;35.106;2024-03-23T05:35:09;101332.13;;;1.17;100.00
29461;BME280;16428;47.836;35.106;2024-03-23T05:37:35;101337.66;;;1.27;100.00
29461;BME280;16428;47.836;35.106;2024-03-23T05:40:01;101331.00;;;1.34;100.00
29461;BME280;16428;47.836;35.106;2024-03-23T05:42:29;101348.81;;;1.57;100.00
29461;BME280;16428;47.836;35.106;2024-03-23T05:44:55;101342.00;;;1.40;100.00
29461;BME280;16428;47.836;35.106;2024-03-23T05:47:21;101346.94;;;1.72;100.00
29461;BME280;16428;47.836;35.106;2024-03-23T05:49:47;101345.34;;;1.69;100.00
29461;BME280;16428;47.836;35.106;2024-03-23T05:52:14;101342.72;;;1.82;100.00
29461;BME280;16428;47.836;35.106;2024-03-23T05:54:39;101341.88;;;1.94;100.00
29461;BME280;16428;47.836;35.106;2024-03-23T05:57:05;101354.47;;;2.03;100.00
29461;BME280;16428;47.836;35.106;2024-03-23T05:59:34;101351.06;;;2.01;100.00
29461;BME280;16428;47.836;35.106;2024-03-23T06:02:00;101361.88;;;2.24;100.00
29461;BME280;16428;47.836;35.106;2024-03-23T06:04:26;101356.69;;;2.22;100.00
29461;BME280;16428;47.836;35.106;2024-03-23T06:06:52;101355.88;;;1.96;100.00
29461;BME280;16428;47.836;35.106;2024-03-23T06:09:18;101352.91;;;2.14;100.00
29461;BME280;16428;47.836;35.106;2024-03-23T06:11:45;101349.47;;;2.37;100.00
29461;BME280;16428;47.836;35.106;2024-03-23T06:14:12;101346.91;;;2.35;100.00
29461;BME280;16428;47.836;35.106;2024-03-23T06:16:38;101355.25;;;2.55;100.00
29461;BME280;16428;47.836;35.106;2024-03-23T06:19:04;101357.41;;;2.86;100.00
29461;BME280;16428;47.836;35.106;2024-03-23T06:21:33;101349.75;;;2.81;100.00
29461;BME280;16428;47.836;35.106;2024-03-23T06:23:59;101353.16;;;2.83;100.00
29461;BME280;16428;47.836;35.106;2024-03-23T06:26:25;101360.22;;;2.96;100.00
29461;BME280;16428;47.836;35.106;2024-03-23T06:28:51;101355.47;;;3.12;100.00
29461;BME280;16428;47.836;35.106;2024-03-23T06:31:17;101354.06;;;3.19;100.00
29461;BME280;16428;47.836;35.106;2024-03-23T06:33:43;101353.81;;;3.22;100.00
29461;BME280;16428;47.836;35.106;2024-03-23T06:36:10;101353.59;;;3.25;100.00
29461;BME280;16428;47.836;35.106;2024-03-23T06:38:37;101360.31;;;2.94;100.00
29461;BME280;16428;47.836;35.106;2024-03-23T06:46:47;101359.47;;;3.52;100.00
29461;BME280;16428;47.836;35.106;2024-03-23T06:49:14;101351.97;;;3.35;100.00
29461;BME280;16428;47.836;35.106;2024-03-23T06:51:41;101355.66;;;3.68;100.00
29461;BME280;16428;47.836;35.106;2024-03-23T06:54:07;101363.50;;;3.58;100.00
29461;BME280;16428;47.836;35.106;2024-03-23T06:56:34;101362.44;;;3.72;100.00
29461;BME280;16428;47.836;35.106;2024-03-23T06:59:01;101359.56;;;3.86;100.00
29461;BME280;16428;47.836;35.106;2024-03-23T07:01:27;101362.50;;;4.05;100.00
29461;BME280;16428;47.836;35.106;2024-03-23T07:03:54;101369.25;;;3.98;100.00
29461;BME280;16428;47.836;35.106;2024-03-23T07:06:21;101368.47;;;4.42;100.00
29461;BME280;16428;47.836;35.106;2024-03-23T07:08:47;101371.00;;;4.55;100.00
29461;BME280;16428;47.836;35.106;2024-03-23T07:11:20;101366.63;;;4.65;100.00
29461;BME280;16428;47.836;35.106;2024-03-23T07:13:49;101362.03;;;4.45;100.00
29461;BME280;16428;47.836;35.106;2024-03-23T07:16:16;101360.09;;;4.69;100.00
29461;BME280;16428;47.836;35.106;2024-03-23T07:18:42;101361.78;;;4.59;100.00
29461;BME280;16428;47.836;35.106;2024-03-23T07:21:08;101363.19;;;4.74;100.00
29461;BME280;16428;47.836;35.106;2024-03-23T07:23:34;101362.56;;;4.93;100.00
29461;BME280;16428;47.836;35.106;2024-03-23T07:26:02;101355.66;;;5.02;100.00
29461;BME280;16428;47.836;35.106;2024-03-23T07:28:28;101355.44;;;5.25;100.00
29461;BME280;16428;47.836;35.106;2024-03-23T07:31:05;101351.56;;;5.50;100.00
29461;BME280;16428;47.836;35.106;2024-03-23T07:33:32;101346.19;;;5.41;100.00
29461;BME280;16428;47.836;35.106;2024-03-23T07:35:59;101344.91;;;5.56;100.00
29461;BME280;16428;47.836;35.106;2024-03-23T07:38:26;101341.28;;;5.25;100.00
29461;BME280;16428;47.836;35.106;2024-03-23T07:40:52;101341.22;;;5.89;100.00
29461;BME280;16428;47.836;35.106;2024-03-23T07:43:28;101347.88;;;5.94;100.00
29461;BME280;16428;47.836;35.106;2024-03-23T07:45:54;101342.00;;;6.31;100.00
29461;BME280;16428;47.836;35.106;2024-03-23T07:48:21;101340.66;;;6.46;100.00
29461;BME280;16428;47.836;35.106;2024-03-23T07:53:22;101335.28;;;6.37;100.00
29461;BME280;16428;47.836;35.106;2024-03-23T07:55:56;101336.22;;;6.66;100.00
29461;BME280;16428;47.836;35.106;2024-03-23T07:58:22;101327.56;;;6.93;100.00
29461;BME280;16428;47.836;35.106;2024-03-23T08:00:48;101329.53;;;7.00;100.00
29461;BME280;16428;47.836;35.106;2024-03-23T08:03:14;101335.47;;;7.14;100.00
29461;BME280;16428;47.836;35.106;2024-03-23T08:05:40;101323.09;;;7.32;100.00
29461;BME280;16428;47.836;35.106;2024-03-23T08:08:07;101323.66;;;7.45;100.00
29461;BME280;16428;47.836;35.106;2024-03-23T08:10:33;101325.00;;;7.68;100.00
29461;BME280;16428;47.836;35.106;2024-03-23T08:12:59;101330.53;;;7.57;100.00
29461;BME280;16428;47.836;35.106;2024-03-23T08:15:26;101324.78;;;7.43;100.00
29461;BME280;16428;47.836;35.106;2024-03-23T08:17:52;101326.00;;;7.77;100.00
29461;BME280;16428;47.836;35.106;2024-03-23T08:20:18;101322.69;;;8.02;100.00
29461;BME280;16428;47.836;35.106;2024-03-23T08:22:45;101321.94;;;8.10;100.00
29461;BME280;16428;47.836;35.106;2024-03-23T08:25:11;101313.22;;;7.52;100.00
29461;BME280;16428;47.836;35.106;2024-03-23T08:27:37;101312.31;;;7.90;100.00
29461;BME280;16428;47.836;35.106;2024-03-23T08:30:03;101314.13;;;8.26;100.00
29461;BME280;16428;47.836;35.106;2024-03-23T08:32:30;101311.00;;;8.40;97.32
29461;BME280;16428;47.836;35.106;2024-03-23T08:34:56;101315.78;;;8.46;95.36
29461;BME280;16428;47.836;35.106;2024-03-23T08:37:22;101317.09;;;8.60;97.08
29461;BME280;16428;47.836;35.106;2024-03-23T08:39:51;101308.41;;;8.76;94.25
29461;BME280;16428;47.836;35.106;2024-03-23T08:42:17;101309.13;;;8.96;95.06
29461;BME280;16428;47.836;35.106;2024-03-23T08:44:43;101305.38;;;9.06;98.46
29461;BME280;16428;47.836;35.106;2024-03-23T08:47:12;101302.88;;;8.60;96.75
29461;BME280;16428;47.836;35.106;2024-03-23T08:49:38;101303.00;;;9.21;93.71
29461;BME280;16428;47.836;35.106;2024-03-23T08:52:04;101301.22;;;8.76;94.01
29461;BME280;16428;47.836;35.106;2024-03-23T08:54:30;101289.59;;;9.03;98.94
29461;BME280;16428;47.836;35.106;2024-03-23T08:56:57;101295.50;;;9.25;93.78
29461;BME280;16428;47.836;35.106;2024-03-23T08:59:23;101289.06;;;9.17;92.32
29461;BME280;16428;47.836;35.106;2024-03-23T09:01:50;101295.66;;;9.67;91.17
29461;BME280;16428;47.836;35.106;2024-03-23T09:04:17;101287.47;;;10.20;87.66
29461;BME280;16428;47.836;35.106;2024-03-23T09:06:43;101295.50;;;10.54;85.94
29461;BME280;16428;47.836;35.106;2024-03-23T09:09:09;101293.69;;;10.63;86.15
29461;BME280;16428;47.836;35.106;2024-03-23T09:11:35;101286.25;;;10.48;90.37
29461;BME280;16428;47.836;35.106;2024-03-23T09:14:03;101279.03;;;10.57;88.24
29461;BME280;16428;47.836;35.106;2024-03-23T09:16:30;101281.94;;;10.72;91.20
29461;BME280;16428;47.836;35.106;2024-03-23T09:18:56;101290.56;;;10.83;82.96
29461;BME280;16428;47.836;35.106;2024-03-23T09:21:22;101287.44;;;11.45;81.02
29461;BME280;16428;47.836;35.106;2024-03-23T09:23:48;101277.50;;;11.21;82.62
29461;BME280;16428;47.836;35.106;2024-03-23T09:26:15;101279.16;;;11.62;80.98
29461;BME280;16428;47.836;35.106;2024-03-23T09:28:41;101266.88;;;10.95;85.73
29461;BME280;16428;47.836;35.106;2024-03-23T09:31:08;101259.84;;;11.35;82.86
29461;BME280;16428;47.836;35.106;2024-03-23T09:33:35;101260.16;;;11.32;81.43
29461;BME280;16428;47.836;35.106;2024-03-23T09:36:05;101265.03;;;11.77;79.69
29461;BME280;16428;47.836;35.106;2024-03-23T09:38:31;101260.69;;;11.76;79.09
29461;BME280;16428;47.836;35.106;2024-03-23T09:40:58;101271.16;;;12.18;78.28
29461;BME280;16428;47.836;35.106;2024-03-23T09:43:25;101260.78;;;11.98;78.20
29461;BME280;16428;47.836;35.106;2024-03-23T09:45:52;101250.63;;;12.09;80.29
29461;BME280;16428;47.836;35.106;2024-03-23T09:48:19;101260.34;;;12.65;74.77
29461;BME280;16428;47.836;35.106;2024-03-23T09:50:45;101251.72;;;11.75;75.62
29461;BME280;16428;47.836;35.106;2024-03-23T09:53:13;101252.53;;;12.39;77.20
29461;BME280;16428;47.836;35.106;2024-03-23T09:55:41;101243.88;;;12.83;73.25
29461;BME280;16428;47.836;35.106;2024-03-23T09:58:08;101240.38;;;12.51;75.80
29461;BME280;16428;47.836;35.106;2024-03-23T10:00:35;101243.31;;;12.64;72.71
29461;BME280;16428;47.836;35.106;2024-03-23T10:03:01;101240.44;;;12.35;72.39
29461;BME280;16428;47.836;35.106;2024-03-23T10:05:29;101235.47;;;12.16;74.43
29461;BME280;16428;47.836;35.106;2024-03-23T10:07:57;101232.72;;;12.86;72.62
29461;BME280;16428;47.836;35.106;2024-03-23T10:10:25;101236.75;;;12.28;71.64
29461;BME280;16428;47.836;35.106;2024-03-23T10:12:51;101235.88;;;11.96;74.25
29461;BME280;16428;47.836;35.106;2024-03-23T10:15:38;101231.91;;;12.23;76.38
29461;BME280;16428;47.836;35.106;2024-03-23T10:18:22;101230.50;;;11.96;74.07
29461;BME280;16428;47.836;35.106;2024-03-23T10:23:40;101225.03;;;12.13;71.44
29461;BME280;16428;47.836;35.106;2024-03-23T10:26:24;101220.06;;;11.93;72.99
29461;BME280;16428;47.836;35.106;2024-03-23T10:29:00;101214.94;;;12.15;72.17
29461;BME280;16428;47.836;35.106;2024-03-23T10:31:28;101217.56;;;12.31;72.20
29461;BME280;16428;47.836;35.106;2024-03-23T10:33:54;101209.81;;;12.59;71.65
29461;BME280;16428;47.836;35.106;2024-03-23T10:36:22;101206.69;;;12.16;71.08
29461;BME280;16428;47.836;35.106;2024-03-23T10:38:53;101194.75;;;12.11;71.75
29461;BME280;16428;47.836;35.106;2024-03-23T10:41:19;101203.69;;;12.42;73.22
29461;BME280;16428;47.836;35.106;2024-03-23T10:43:47;101197.75;;;12.78;74.83
29461;BME280;16428;47.836;35.106;2024-03-23T10:46:14;101196.72;;;12.79;70.90
29461;BME280;16428;47.836;35.106;2024-03-23T10:48:40;101201.91;;;12.57;71.77
29461;BME280;16428;47.836;35.106;2024-03-23T10:51:07;101190.44;;;12.63;72.26
29461;BME280;16428;47.836;35.106;2024-03-23T10:53:35;101189.38;;;12.11;72.78
29461;BME280;16428;47.836;35.106;2024-03-23T10:56:04;101185.63;;;12.96;72.22
29461;BME280;16428;47.836;35.106;2024-03-23T10:58:39;101178.28;;;12.67;70.67
29461;BME280;16428;47.836;35.106;2024-03-23T11:01:06;101180.47;;;12.87;71.06
29461;BME280;16428;47.836;35.106;2024-03-23T11:03:33;101174.28;;;13.01;70.55
29461;BME280;16428;47.836;35.106;2024-03-23T11:06:01;101175.41;;;13.29;69.53
29461;BME280;16428;47.836;35.106;2024-03-23T11:08:34;101166.25;;;13.53;67.94
29461;BME280;16428;47.836;35.106;2024-03-23T11:13:39;101158.22;;;14.04;61.29
29461;BME280;16428;47.836;35.106;2024-03-23T11:16:25;101148.25;;;14.04;62.04
29461;BME280;16428;47.836;35.106;2024-03-23T11:18:54;101150.66;;;13.99;61.59
29461;BME280;16428;47.836;35.106;2024-03-23T11:21:52;101152.06;;;12.99;64.37
29461;BME280;16428;47.836;35.106;2024-03-23T11:24:21;101138.41;;;13.00;64.42
29461;BME280;16428;47.836;35.106;2024-03-23T11:26:48;101144.16;;;13.20;63.83
29461;BME280;16428;47.836;35.106;2024-03-23T11:29:16;101143.78;;;13.23;65.44
29461;BME280;16428;47.836;35.106;2024-03-23T11:31:53;101139.78;;;13.34;65.66
29461;BME280;16428;47.836;35.106;2024-03-23T11:34:20;101149.06;;;14.20;62.34
29461;BME280;16428;47.836;35.106;2024-03-23T11:36:46;101135.69;;;13.97;60.52
29461;BME280;16428;47.836;35.106;2024-03-23T11:39:17;101134.53;;;14.06;62.16
29461;BME280;16428;47.836;35.106;2024-03-23T11:41:50;101127.78;;;14.31;62.62
29461;BME280;16428;47.836;35.106;2024-03-23T11:44:21;101124.09;;;14.75;60.47
29461;BME280;16428;47.836;35.106;2024-03-23T11:46:51;101124.75;;;15.05;56.52
29461;BME280;16428;47.836;35.106;2024-03-23T11:49:25;101118.41;;;14.91;56.82
29461;BME280;16428;47.836;35.106;2024-03-23T11:51:53;101111.47;;;14.61;54.41
29461;BME280;16428;47.836;35.106;2024-03-23T11:54:23;101106.53;;;14.64;56.33
29461;BME280;16428;47.836;35.106;2024-03-23T11:57:04;101106.28;;;15.15;54.93
29461;BME280;16428;47.836;35.106;2024-03-23T11:59:37;101107.22;;;14.52;56.42
29461;BME280;16428;47.836;35.106;2024-03-23T12:02:13;101108.63;;;15.53;56.34
29461;BME280;16428;47.836;35.106;2024-03-23T12:04:41;101105.13;;;15.24;54.65
29461;BME280;16428;47.836;35.106;2024-03-23T12:07:15;101103.66;;;15.28;54.71
29461;BME280;16428;47.836;35.106;2024-03-23T12:09:42;101095.34;;;15.23;51.44
29461;BME280;16428;47.836;35.106;2024-03-23T12:12:18;101091.16;;;15.21;53.14
29461;BME280;16428;47.836;35.106;2024-03-23T12:14:45;101087.44;;;14.72;52.47
29461;BME280;16428;47.836;35.106;2024-03-23T12:17:27;101082.03;;;13.94;57.63
29461;BME280;16428;47.836;35.106;2024-03-23T12:19:53;101076.13;;;15.11;57.18
29461;BME280;16428;47.836;35.106;2024-03-23T12:22:23;101074.06;;;14.64;55.08
29461;BME280;16428;47.836;35.106;2024-03-23T12:24:50;101073.84;;;14.87;55.68
29461;BME280;16428;47.836;35.106;2024-03-23T12:27:16;101077.38;;;15.16;53.53
29461;BME280;16428;47.836;35.106;2024-03-23T12:29:43;101074.66;;;14.88;56.21
29461;BME280;16428;47.836;35.106;2024-03-23T12:32:12;101078.91;;;14.48;57.77
29461;BME280;16428;47.836;35.106;2024-03-23T12:34:38;101075.78;;;14.29;58.87
29461;BME280;16428;47.836;35.106;2024-03-23T12:37:05;101063.44;;;14.20;58.49
29461;BME280;16428;47.836;35.106;2024-03-23T12:39:33;101057.72;;;13.58;61.58
29461;BME280;16428;47.836;35.106;2024-03-23T12:42:01;101060.81;;;12.88;64.95
29461;BME280;16428;47.836;35.106;2024-03-23T12:44:31;101064.13;;;12.98;65.15
29461;BME280;16428;47.836;35.106;2024-03-23T12:46:57;101068.31;;;13.30;64.22
29461;BME280;16428;47.836;35.106;2024-03-23T12:49:23;101066.44;;;13.75;62.67
29461;BME280;16428;47.836;35.106;2024-03-23T12:51:54;101058.19;;;13.47;63.48
29461;BME280;16428;47.836;35.106;2024-03-23T12:54:22;101065.75;;;12.99;67.15
29461;BME280;16428;47.836;35.106;2024-03-23T12:56:48;101060.50;;;13.64;65.56
29461;BME280;16428;47.836;35.106;2024-03-23T12:59:14;101062.94;;;14.53;63.84
29461;BME280;16428;47.836;35.106;2024-03-23T13:01:42;101062.94;;;15.36;59.39
29461;BME280;16428;47.836;35.106;2024-03-23T13:04:10;101054.22;;;15.41;58.41
29461;BME280;16428;47.836;35.106;2024-03-23T13:06:36;101052.03;;;14.67;58.16
29461;BME280;16428;47.836;35.106;2024-03-23T13:09:04;101062.63;;;14.41;57.93
29461;BME280;16428;47.836;35.106;2024-03-23T13:11:33;101056.91;;;14.51;58.13
29461;BME280;16428;47.836;35.106;2024-03-23T13:14:00;101044.97;;;14.66;59.09
29461;BME280;16428;47.836;35.106;2024-03-23T13:16:26;101048.88;;;15.54;56.12
29461;BME280;16428;47.836;35.106;2024-03-23T13:18:52;101050.03;;;15.79;54.83
29461;BME280;16428;47.836;35.106;2024-03-23T13:21:19;101052.53;;;15.81;53.69
29461;BME280;16428;47.836;35.106;2024-03-23T13:23:49;101047.47;;;15.65;52.39
29461;BME280;16428;47.836;35.106;2024-03-23T13:26:17;101034.91;;;15.16;53.69
29461;BME280;16428;47.836;35.106;2024-03-23T13:28:45;101036.84;;;15.63;52.74
29461;BME280;16428;47.836;35.106;2024-03-23T13:31:11;101026.53;;;15.93;51.88
29461;BME280;16428;47.836;35.106;2024-03-23T13:33:38;101032.03;;;16.39;49.94
29461;BME280;16428;47.836;35.106;2024-03-23T13:36:04;101038.13;;;15.74;50.89
29461;BME280;16428;47.836;35.106;2024-03-23T13:38:31;101040.31;;;15.16;51.57
29461;BME280;16428;47.836;35.106;2024-03-23T13:40:59;101029.25;;;14.76;52.68
29461;BME280;16428;47.836;35.106;2024-03-23T13:43:27;101028.72;;;15.22;54.18
29461;BME280;16428;47.836;35.106;2024-03-23T13:45:56;101028.22;;;16.07;50.28
29461;BME280;16428;47.836;35.106;2024-03-23T13:48:24;101028.84;;;15.96;49.14
29461;BME280;16428;47.836;35.106;2024-03-23T13:51:05;101033.28;;;15.63;48.94
29461;BME280;16428;47.836;35.106;2024-03-23T13:53:31;101020.66;;;15.35;50.49
29461;BME280;16428;47.836;35.106;2024-03-23T13:56:05;101025.34;;;16.35;48.34
29461;BME280;16428;47.836;35.106;2024-03-23T13:58:32;101035.16;;;15.56;48.41
29461;BME280;16428;47.836;35.106;2024-03-23T14:01:03;101038.06;;;15.61;48.03
29461;BME280;16428;47.836;35.106;2024-03-23T14:03:31;101029.59;;;14.95;48.49